sensor_id;sensor_type;location;lat;lon;timestamp;pressure;altitude;pressure_sealevel;temperature;humidity
48035;BME280;33812;46.480;6.834;2023-05-20T00:01:51;93536.34;;;21.86;42.64
48035;BME280;33812;46.480;6.834;2023-05-20T00:05:53;93534.81;;;21.85;42.63
48035;BME280;33812;46.480;6.834;2023-05-20T00:09:55;93535.59;;;21.85;42.77
48035;BME280;33812;46.480;6.834;2023-05-20T00:13:57;93529.28;;;21.85;42.60
48035;BME280;33812;46.480;6.834;2023-05-20T00:18:01;93519.75;;;21.86;42.74
48035;BME280;33812;46.480;6.834;2023-05-20T00:22:04;93534.81;;;21.85;42.50
48035;BME280;33812;46.480;6.834;2023-05-20T00:26:06;93534.03;;;21.84;42.72
48035;BME280;33812;46.480;6.834;2023-05-20T00:30:08;93528.50;;;21.84;42.81
48035;BME280;33812;46.480;6.834;2023-05-20T00:34:12;93517.88;;;21.83;42.58
48035;BME280;33812;46.480;6.834;2023-05-20T00:38:15;93514.22;;;21.86;42.55
48035;BME280;33812;46.480;6.834;2023-05-20T00:42:20;93504.06;;;21.83;42.42
48035;BME280;33812;46.480;6.834;2023-05-20T00:46:22;93513.47;;;21.85;42.51
48035;BME280;33812;46.480;6.834;2023-05-20T00:50:26;93511.13;;;21.84;42.50
48035;BME280;33812;46.480;6.834;2023-05-20T00:54:28;93502.81;;;21.84;42.40
48035;BME280;33812;46.480;6.834;2023-05-20T00:58:30;93499.28;;;21.83;42.33
48035;BME280;33812;46.480;6.834;2023-05-20T01:02:32;93500.06;;;21.84;42.41
48035;BME280;33812;46.480;6.834;2023-05-20T01:06:35;93482.25;;;21.85;42.35
48035;BME280;33812;46.480;6.834;2023-05-20T01:10:40;93492.53;;;21.84;42.27
48035;BME280;33812;46.480;6.834;2023-05-20T01:14:47;93488.22;;;21.83;42.32
48035;BME280;33812;46.480;6.834;2023-05-20T01:18:50;93481.91;;;21.83;42.07
48035;BME280;33812;46.480;6.834;2023-05-20T01:22:56;93481.91;;;21.83;42.18
48035;BME280;33812;46.480;6.834;2023-05-20T01:26:57;93486.66;;;21.82;42.01
48035;BME280;33812;46.480;6.834;2023-05-20T01:31:00;93491.44;;;21.82;42.07
48035;BME280;33812;46.480;6.834;2023-05-20T01:35:04;93493.75;;;21.83;42.12
48035;BME280;33812;46.480;6.834;2023-05-20T01:39:08;93491.44;;;21.82;42.13
48035;BME280;33812;46.480;6.834;2023-05-20T01:43:10;93488.69;;;21.82;42.00
48035;BME280;33812;46.480;6.834;2023-05-20T01:47:12;93484.81;;;21.79;42.02
48035;BME280;33812;46.480;6.834;2023-05-20T01:51:14;93489.09;;;21.80;41.97
48035;BME280;33812;46.480;6.834;2023-05-20T01:55:18;93489.09;;;21.80;42.02
48035;BME280;33812;46.480;6.834;2023-05-20T01:59:20;93496.66;;;21.80;41.98
48035;BME280;33812;46.480;6.834;2023-05-20T02:03:22;93492.66;;;21.81;41.96
48035;BME280;33812;46.480;6.834;2023-05-20T02:07:23;93488.78;;;21.78;41.88
48035;BME280;33812;46.480;6.834;2023-05-20T02:11:26;93484.34;;;21.81;41.83
48035;BME280;33812;46.480;6.834;2023-05-20T02:15:28;93477.91;;;21.84;41.84
48035;BME280;33812;46.480;6.834;2023-05-20T02:19:30;93469.41;;;21.78;41.99
48035;BME280;33812;46.480;6.834;2023-05-20T02:23:32;93468.63;;;21.78;41.84
48035;BME280;33812;46.480;6.834;2023-05-20T02:27:37;93470.97;;;21.79;42.00
48035;BME280;33812;46.480;6.834;2023-05-20T02:31:40;93471.75;;;21.80;41.75
48035;BME280;33812;46.480;6.834;2023-05-20T02:35:42;93463.09;;;21.78;41.81
48035;BME280;33812;46.480;6.834;2023-05-20T02:39:44;93464.34;;;21.77;41.70
48035;BME280;33812;46.480;6.834;2023-05-20T02:43:47;93465.88;;;21.78;41.65
48035;BME280;33812;46.480;6.834;2023-05-20T02:47:50;93461.56;;;21.77;41.85
48035;BME280;33812;46.480;6.834;2023-05-20T02:51:55;93465.88;;;21.78;41.69
48035;BME280;33812;46.480;6.834;2023-05-20T02:55:56;93464.00;;;21.74;41.71
48035;BME280;33812;46.480;6.834;2023-05-20T03:00:01;93461.56;;;21.77;41.66
48035;BME280;33812;46.480;6.834;2023-05-20T03:04:04;93467.53;;;21.75;41.64
48035;BME280;33812;46.480;6.834;2023-05-20T03:08:07;93458.81;;;21.77;41.67
48035;BME280;33812;46.480;6.834;2023-05-20T03:12:09;93451.72;;;21.76;41.68
48035;BME280;33812;46.480;6.834;2023-05-20T03:16:13;93451.72;;;21.76;41.58
48035;BME280;33812;46.480;6.834;2023-05-20T03:20:16;93454.47;;;21.76;41.58
48035;BME280;33812;46.480;6.834;2023-05-20T03:24:18;93454.16;;;21.73;41.54
48035;BME280;33812;46.480;6.834;2023-05-20T03:28:19;93450.19;;;21.74;41.66
48035;BME280;33812;46.480;6.834;2023-05-20T03:32:22;93456.91;;;21.73;41.66
48035;BME280;33812;46.480;6.834;2023-05-20T03:36:24;93454.16;;;21.73;41.54
48035;BME280;33812;46.480;6.834;2023-05-20T03:40:26;93450.19;;;21.74;41.46
48035;BME280;33812;46.480;6.834;2023-05-20T03:44:28;93448.63;;;21.73;41.46
48035;BME280;33812;46.480;6.834;2023-05-20T03:48:31;93442.22;;;21.77;41.41
48035;BME280;33812;46.480;6.834;2023-05-20T03:52:33;93443.88;;;21.74;41.51
48035;BME280;33812;46.480;6.834;2023-05-20T03:56:34;93441.88;;;21.74;41.29
48035;BME280;33812;46.480;6.834;2023-05-20T04:00:36;93441.56;;;21.72;41.09
48035;BME280;33812;46.480;6.834;2023-05-20T04:04:40;93449.84;;;21.72;41.28
48035;BME280;33812;46.480;6.834;2023-05-20T04:08:42;93447.09;;;21.72;41.33
48035;BME280;33812;46.480;6.834;2023-05-20T04:12:45;93444.31;;;21.72;41.23
48035;BME280;33812;46.480;6.834;2023-05-20T04:16:47;93448.63;;;21.73;41.22
48035;BME280;33812;46.480;6.834;2023-05-20T04:20:53;93447.09;;;21.72;41.15
48035;BME280;33812;46.480;6.834;2023-05-20T04:24:55;93443.88;;;21.74;41.28
48035;BME280;33812;46.480;6.834;2023-05-20T04:28:58;93443.09;;;21.73;41.17
48035;BME280;33812;46.480;6.834;2023-05-20T04:33:01;93436.03;;;21.72;41.17
48035;BME280;33812;46.480;6.834;2023-05-20T04:37:04;93448.16;;;21.75;41.07
48035;BME280;33812;46.480;6.834;2023-05-20T04:41:07;93448.94;;;21.76;41.04
48035;BME280;33812;46.480;6.834;2023-05-20T04:45:09;93455.25;;;21.76;41.12
48035;BME280;33812;46.480;6.834;2023-05-20T04:49:11;93458.03;;;21.76;41.09
48035;BME280;33812;46.480;6.834;2023-05-20T04:53:14;93449.19;;;21.81;40.94
48035;BME280;33812;46.480;6.834;2023-05-20T04:57:17;93441.66;;;21.82;40.98
48035;BME280;33812;46.480;6.834;2023-05-20T05:01:20;93439.84;;;21.88;40.97
48035;BME280;33812;46.480;6.834;2023-05-20T05:05:22;93439.63;;;21.82;41.26
48035;BME280;33812;46.480;6.834;2023-05-20T05:09:25;93440.09;;;21.81;41.70
48035;BME280;33812;46.480;6.834;2023-05-20T05:13:26;93436.75;;;21.86;41.01
48035;BME280;33812;46.480;6.834;2023-05-20T05:17:28;93436.63;;;21.90;40.77
48035;BME280;33812;46.480;6.834;2023-05-20T05:21:30;93433.84;;;21.90;40.75
48035;BME280;33812;46.480;6.834;2023-05-20T05:25:33;93427.88;;;21.91;40.63
48035;BME280;33812;46.480;6.834;2023-05-20T05:29:35;93435.59;;;21.96;40.86
48035;BME280;33812;46.480;6.834;2023-05-20T05:33:36;93437.16;;;21.97;41.65
48035;BME280;33812;46.480;6.834;2023-05-20T05:37:38;93430.97;;;21.93;42.04
48035;BME280;33812;46.480;6.834;2023-05-20T05:41:41;93421.44;;;21.94;42.32
48035;BME280;33812;46.480;6.834;2023-05-20T05:45:43;93423.31;;;21.97;42.29
48035;BME280;33812;46.480;6.834;2023-05-20T05:49:45;93407.47;;;21.98;42.32
48035;BME280;33812;46.480;6.834;2023-05-20T05:53:47;93417.66;;;22.01;42.43
48035;BME280;33812;46.480;6.834;2023-05-20T05:57:50;93427.47;;;22.02;42.67
48035;BME280;33812;46.480;6.834;2023-05-20T06:01:52;93417.94;;;22.03;42.51
48035;BME280;33812;46.480;6.834;2023-05-20T06:05:54;93414.28;;;22.06;42.43
48035;BME280;33812;46.480;6.834;2023-05-20T06:09:56;93413.66;;;22.02;42.37
48035;BME280;33812;46.480;6.834;2023-05-20T06:14:00;93419.97;;;22.03;42.60
48035;BME280;33812;46.480;6.834;2023-05-20T06:18:01;93421.81;;;22.06;42.93
48035;BME280;33812;46.480;6.834;2023-05-20T06:22:03;93416.66;;;21.95;42.96
48035;BME280;33812;46.480;6.834;2023-05-20T06:26:05;93415.00;;;21.97;42.42
48035;BME280;33812;46.480;6.834;2023-05-20T06:30:09;93412.81;;;21.92;42.25
48035;BME280;33812;46.480;6.834;2023-05-20T06:34:11;93421.44;;;21.94;42.30
48035;BME280;33812;46.480;6.834;2023-05-20T06:38:13;93420.72;;;22.03;42.61
48035;BME280;33812;46.480;6.834;2023-05-20T06:42:15;93414.59;;;22.08;42.50
48035;BME280;33812;46.480;6.834;2023-05-20T06:46:19;93405.06;;;22.09;42.56
48035;BME280;33812;46.480;6.834;2023-05-20T06:50:21;93398.63;;;22.13;42.49
48035;BME280;33812;46.480;6.834;2023-05-20T06:54:24;93397.81;;;22.03;41.89
48035;BME280;33812;46.480;6.834;2023-05-20T06:58:26;93399.13;;;21.08;41.05
48035;BME280;33812;46.480;6.834;2023-05-20T07:02:32;93401.25;;;20.65;41.68
48035;BME280;33812;46.480;6.834;2023-05-20T07:06:34;93404.16;;;21.45;40.88
48035;BME280;33812;46.480;6.834;2023-05-20T07:10:35;93386.56;;;21.74;40.54
48035;BME280;33812;46.480;6.834;2023-05-20T07:14:37;93387.88;;;21.83;40.78
48035;BME280;33812;46.480;6.834;2023-05-20T07:18:40;93386.03;;;21.89;41.03
48035;BME280;33812;46.480;6.834;2023-05-20T07:22:42;93393.13;;;21.90;41.13
48035;BME280;33812;46.480;6.834;2023-05-20T07:26:44;93392.22;;;21.93;41.21
48035;BME280;33812;46.480;6.834;2023-05-20T07:30:46;93382.69;;;21.94;41.27
48035;BME280;33812;46.480;6.834;2023-05-20T07:34:50;93386.25;;;21.95;41.35
48035;BME280;33812;46.480;6.834;2023-05-20T07:38:53;93387.78;;;21.96;41.12
48035;BME280;33812;46.480;6.834;2023-05-20T07:42:54;93389.78;;;21.95;41.21
48035;BME280;33812;46.480;6.834;2023-05-20T07:46:56;93385.78;;;21.96;41.28
48035;BME280;33812;46.480;6.834;2023-05-20T07:50:59;93376.28;;;21.97;41.29
48035;BME280;33812;46.480;6.834;2023-05-20T07:55:01;93362.72;;;22.00;41.27
48035;BME280;33812;46.480;6.834;2023-05-20T07:59:03;93368.25;;;22.00;41.17
48035;BME280;33812;46.480;6.834;2023-05-20T08:03:05;93368.25;;;22.00;41.28
48035;BME280;33812;46.480;6.834;2023-05-20T08:07:08;93367.38;;;22.03;41.30
48035;BME280;33812;46.480;6.834;2023-05-20T08:11:10;93372.91;;;22.03;41.54
48035;BME280;33812;46.480;6.834;2023-05-20T08:15:12;93368.47;;;22.05;41.12
48035;BME280;33812;46.480;6.834;2023-05-20T08:19:14;93366.47;;;22.06;41.32
48035;BME280;33812;46.480;6.834;2023-05-20T08:23:17;93356.19;;;22.06;41.27
48035;BME280;33812;46.480;6.834;2023-05-20T08:27:18;93349.41;;;22.07;41.27
48035;BME280;33812;46.480;6.834;2023-05-20T08:31:20;93351.72;;;22.09;41.01
48035;BME280;33812;46.480;6.834;2023-05-20T08:35:22;93356.03;;;22.10;41.20
48035;BME280;33812;46.480;6.834;2023-05-20T08:39:25;93359.09;;;22.12;40.99
48035;BME280;33812;46.480;6.834;2023-05-20T08:43:27;93357.91;;;22.13;41.25
48035;BME280;33812;46.480;6.834;2023-05-20T08:47:31;93355.88;;;22.14;41.12
48035;BME280;33812;46.480;6.834;2023-05-20T08:51:35;93347.16;;;22.15;40.96
48035;BME280;33812;46.480;6.834;2023-05-20T08:55:42;93347.91;;;22.16;41.03
48035;BME280;33812;46.480;6.834;2023-05-20T08:59:48;93341.91;;;22.17;40.96
48035;BME280;33812;46.480;6.834;2023-05-20T09:03:50;93349.00;;;22.18;40.99
48035;BME280;33812;46.480;6.834;2023-05-20T09:07:52;93351.75;;;22.18;40.79
48035;BME280;33812;46.480;6.834;2023-05-20T09:11:58;93349.00;;;22.18;41.14
48035;BME280;33812;46.480;6.834;2023-05-20T09:16:00;93347.44;;;22.17;40.90
48035;BME280;33812;46.480;6.834;2023-05-20T09:20:05;93350.06;;;22.21;41.17
48035;BME280;33812;46.480;6.834;2023-05-20T09:24:08;93341.75;;;22.21;41.02
48035;BME280;33812;46.480;6.834;2023-05-20T09:28:11;93348.88;;;22.22;41.01
48035;BME280;33812;46.480;6.834;2023-05-20T09:32:14;93349.63;;;22.22;40.99
48035;BME280;33812;46.480;6.834;2023-05-20T09:36:15;93348.88;;;22.22;41.10
48035;BME280;33812;46.480;6.834;2023-05-20T09:40:18;93351.16;;;22.24;41.07
48035;BME280;33812;46.480;6.834;2023-05-20T09:44:23;93346.72;;;22.26;41.09
48035;BME280;33812;46.480;6.834;2023-05-20T09:48:25;93343.19;;;22.26;41.01
48035;BME280;33812;46.480;6.834;2023-05-20T09:52:28;93337.94;;;22.28;40.94
48035;BME280;33812;46.480;6.834;2023-05-20T09:56:31;93358.09;;;22.28;41.10
48035;BME280;33812;46.480;6.834;2023-05-20T10:00:36;93358.09;;;22.28;41.21
48035;BME280;33812;46.480;6.834;2023-05-20T10:04:42;93346.88;;;22.32;41.03
48035;BME280;33812;46.480;6.834;2023-05-20T10:13:19;93368.72;;;22.30;42.15
48035;BME280;33812;46.480;6.834;2023-05-20T10:17:43;93356.44;;;22.31;42.08
48035;BME280;33812;46.480;6.834;2023-05-20T10:21:56;93366.13;;;22.36;42.69
48035;BME280;33812;46.480;6.834;2023-05-20T10:25:57;93358.59;;;22.36;42.39
48035;BME280;33812;46.480;6.834;2023-05-20T10:29:59;93358.16;;;22.38;42.46
48035;BME280;33812;46.480;6.834;2023-05-20T10:34:03;93354.44;;;22.41;41.90
48035;BME280;33812;46.480;6.834;2023-05-20T10:38:09;93353.81;;;22.37;42.09
48035;BME280;33812;46.480;6.834;2023-05-20T10:42:11;93356.13;;;22.29;41.98
48035;BME280;33812;46.480;6.834;2023-05-20T10:46:17;93344.53;;;22.21;42.28
48035;BME280;33812;46.480;6.834;2023-05-20T10:50:33;93348.41;;;22.24;42.06
48035;BME280;33812;46.480;6.834;2023-05-20T10:54:36;93346.22;;;22.18;42.21
48035;BME280;33812;46.480;6.834;2023-05-20T10:58:38;93347.44;;;22.17;41.80
48035;BME280;33812;46.480;6.834;2023-05-20T11:02:40;93342.88;;;22.24;41.71
48035;BME280;33812;46.480;6.834;2023-05-20T11:06:50;93342.53;;;22.21;42.00
48035;BME280;33812;46.480;6.834;2023-05-20T11:10:55;93343.75;;;22.11;42.09
48035;BME280;33812;46.480;6.834;2023-05-20T11:14:57;93333.91;;;22.19;41.53
48035;BME280;33812;46.480;6.834;2023-05-20T11:18:59;93327.78;;;22.25;41.95
48035;BME280;33812;46.480;6.834;2023-05-20T11:23:04;93328.88;;;22.27;42.00
48035;BME280;33812;46.480;6.834;2023-05-20T11:27:06;93320.88;;;22.29;42.20
48035;BME280;33812;46.480;6.834;2023-05-20T11:31:08;93322.56;;;22.27;42.00
48035;BME280;33812;46.480;6.834;2023-05-20T11:35:21;93330.38;;;22.19;41.89
48035;BME280;33812;46.480;6.834;2023-05-20T11:39:25;93336.41;;;22.27;41.55
48035;BME280;33812;46.480;6.834;2023-05-20T11:43:32;93320.59;;;22.27;41.48
48035;BME280;33812;46.480;6.834;2023-05-20T11:47:35;93321.34;;;22.28;41.66
48035;BME280;33812;46.480;6.834;2023-05-20T11:51:37;93317.63;;;22.21;41.58
48035;BME280;33812;46.480;6.834;2023-05-20T11:55:49;93307.47;;;22.18;41.62
48035;BME280;33812;46.480;6.834;2023-05-20T11:59:51;93312.88;;;22.31;41.47
48035;BME280;33812;46.480;6.834;2023-05-20T12:03:53;93305.50;;;22.28;41.85
48035;BME280;33812;46.480;6.834;2023-05-20T12:07:55;93296.75;;;22.30;41.76
48035;BME280;33812;46.480;6.834;2023-05-20T12:11:58;93297.84;;;22.32;41.67
48035;BME280;33812;46.480;6.834;2023-05-20T12:16:00;93290.13;;;22.27;41.89
48035;BME280;33812;46.480;6.834;2023-05-20T12:20:04;93296.75;;;22.30;41.78
48035;BME280;33812;46.480;6.834;2023-05-20T12:24:06;93294.13;;;22.26;42.02
48035;BME280;33812;46.480;6.834;2023-05-20T12:28:11;93293.66;;;22.28;42.46
48035;BME280;33812;46.480;6.834;2023-05-20T12:32:13;93294.75;;;22.30;41.83
48035;BME280;33812;46.480;6.834;2023-05-20T12:36:14;93295.44;;;22.12;41.30
48035;BME280;33812;46.480;6.834;2023-05-20T12:40:16;93296.09;;;22.16;41.55
48035;BME280;33812;46.480;6.834;2023-05-20T12:44:19;93299.03;;;22.22;41.52
48035;BME280;33812;46.480;6.834;2023-05-20T12:48:21;93308.88;;;22.23;41.73
48035;BME280;33812;46.480;6.834;2023-05-20T12:52:24;93306.88;;;22.24;41.57
48035;BME280;33812;46.480;6.834;2023-05-20T12:56:25;93301.66;;;22.26;41.45
48035;BME280;33812;46.480;6.834;2023-05-20T13:00:28;93307.19;;;22.26;41.54
48035;BME280;33812;46.480;6.834;2023-05-20T13:04:33;93308.28;;;22.28;42.08
48035;BME280;33812;46.480;6.834;2023-05-20T13:08:35;93313.34;;;22.30;41.73
48035;BME280;33812;46.480;6.834;2023-05-20T13:12:37;93303.47;;;22.19;41.99
48035;BME280;33812;46.480;6.834;2023-05-20T13:16:42;93304.72;;;22.28;41.87
48035;BME280;33812;46.480;6.834;2023-05-20T13:20:44;93299.19;;;22.28;41.75
48035;BME280;33812;46.480;6.834;2023-05-20T13:24:45;93308.59;;;22.30;41.83
48035;BME280;33812;46.480;6.834;2023-05-20T13:28:47;93310.72;;;22.26;42.01
48035;BME280;33812;46.480;6.834;2023-05-20T13:32:50;93314.75;;;22.34;41.98
48035;BME280;33812;46.480;6.834;2023-05-20T13:36:52;93312.56;;;22.29;41.78
48035;BME280;33812;46.480;6.834;2023-05-20T13:40:54;93321.34;;;22.28;42.00
48035;BME280;33812;46.480;6.834;2023-05-20T13:44:58;93320.09;;;22.19;41.97
48035;BME280;33812;46.480;6.834;2023-05-20T13:49:01;93329.34;;;22.26;41.86
48035;BME280;33812;46.480;6.834;2023-05-20T13:53:03;93325.34;;;22.27;42.66
48035;BME280;33812;46.480;6.834;2023-05-20T13:57:06;93320.31;;;22.34;42.23
48035;BME280;33812;46.480;6.834;2023-05-20T14:01:08;93323.69;;;22.39;42.07
48035;BME280;33812;46.480;6.834;2023-05-20T14:05:13;93315.34;;;22.29;42.44
48035;BME280;33812;46.480;6.834;2023-05-20T14:09:16;93315.19;;;22.33;42.41
48035;BME280;33812;46.480;6.834;2023-05-20T14:13:20;93306.13;;;22.32;42.34
48035;BME280;33812;46.480;6.834;2023-05-20T14:17:22;93300.47;;;22.36;42.39
48035;BME280;33812;46.480;6.834;2023-05-20T14:21:25;93296.16;;;22.44;42.25
48035;BME280;33812;46.480;6.834;2023-05-20T14:25:27;93292.63;;;22.34;42.63
48035;BME280;33812;46.480;6.834;2023-05-20T14:29:29;93293.06;;;22.33;42.68
48035;BME280;33812;46.480;6.834;2023-05-20T14:33:31;93304.75;;;22.37;42.77
48035;BME280;33812;46.480;6.834;2023-05-20T14:37:35;93304.59;;;22.31;42.74
48035;BME280;33812;46.480;6.834;2023-05-20T14:41:36;93306.44;;;22.25;42.77
48035;BME280;33812;46.480;6.834;2023-05-20T14:45:38;93313.22;;;22.33;42.87
48035;BME280;33812;46.480;6.834;2023-05-20T14:49:40;93295.97;;;22.29;42.86
48035;BME280;33812;46.480;6.834;2023-05-20T14:53:46;93301.69;;;22.35;42.94
48035;BME280;33812;46.480;6.834;2023-05-20T14:57:48;93305.50;;;22.28;42.94
48035;BME280;33812;46.480;6.834;2023-05-20T15:01:49;93309.97;;;22.35;42.93
48035;BME280;33812;46.480;6.834;2023-05-20T15:05:51;93319.84;;;22.36;43.10
48035;BME280;33812;46.480;6.834;2023-05-20T15:09:54;93311.41;;;22.40;43.22
48035;BME280;33812;46.480;6.834;2023-05-20T15:13:56;93300.31;;;22.40;42.84
48035;BME280;33812;46.480;6.834;2023-05-20T15:17:59;93308.91;;;22.42;42.78
48035;BME280;33812;46.480;6.834;2023-05-20T15:22:02;93313.69;;;22.41;43.14
48035;BME280;33812;46.480;6.834;2023-05-20T15:26:05;93307.53;;;22.37;42.97
48035;BME280;33812;46.480;6.834;2023-05-20T15:30:07;93317.53;;;22.34;43.22
48035;BME280;33812;46.480;6.834;2023-05-20T15:34:09;93321.69;;;22.39;43.10
48035;BME280;33812;46.480;6.834;2023-05-20T15:38:12;93320.00;;;22.42;43.28
48035;BME280;33812;46.480;6.834;2023-05-20T15:42:15;93311.84;;;22.48;42.88
48035;BME280;33812;46.480;6.834;2023-05-20T15:46:17;93316.75;;;22.43;43.24
48035;BME280;33812;46.480;6.834;2023-05-20T15:50:19;93307.25;;;22.44;43.52
48035;BME280;33812;46.480;6.834;2023-05-20T15:54:22;93301.38;;;22.42;43.28
48035;BME280;33812;46.480;6.834;2023-05-20T15:58:27;93298.47;;;22.46;43.10
48035;BME280;33812;46.480;6.834;2023-05-20T16:02:29;93302.00;;;22.37;43.41
48035;BME280;33812;46.480;6.834;2023-05-20T16:06:32;93314.59;;;22.29;43.22
48035;BME280;33812;46.480;6.834;2023-05-20T16:10:35;93310.44;;;22.33;42.93
48035;BME280;33812;46.480;6.834;2023-05-20T16:14:38;93306.75;;;22.37;42.86
48035;BME280;33812;46.480;6.834;2023-05-20T16:18:40;93313.84;;;22.38;42.89
48035;BME280;33812;46.480;6.834;2023-05-20T16:22:41;93310.63;;;22.39;42.98
48035;BME280;33812;46.480;6.834;2023-05-20T16:26:43;93315.09;;;22.46;43.48
48035;BME280;33812;46.480;6.834;2023-05-20T16:30:46;93326.31;;;22.42;43.89
48035;BME280;33812;46.480;6.834;2023-05-20T16:34:49;93325.25;;;22.49;44.09
48035;BME280;33812;46.480;6.834;2023-05-20T16:38:51;93327.56;;;22.51;44.15
48035;BME280;33812;46.480;6.834;2023-05-20T16:42:52;93331.88;;;22.52;44.28
48035;BME280;33812;46.480;6.834;2023-05-20T16:46:55;93327.41;;;22.54;44.48
48035;BME280;33812;46.480;6.834;2023-05-20T16:50:59;93320.81;;;22.52;43.98
48035;BME280;33812;46.480;6.834;2023-05-20T16:55:01;93320.94;;;22.57;44.54
48035;BME280;33812;46.480;6.834;2023-05-20T16:59:05;93314.50;;;22.61;44.34
48035;BME280;33812;46.480;6.834;2023-05-20T17:03:08;93319.28;;;22.60;44.53
48035;BME280;33812;46.480;6.834;2023-05-20T17:07:10;93318.63;;;22.56;44.55
48035;BME280;33812;46.480;6.834;2023-05-20T17:11:12;93319.63;;;22.62;44.51
48035;BME280;33812;46.480;6.834;2023-05-20T17:15:15;93310.38;;;22.65;44.35
48035;BME280;33812;46.480;6.834;2023-05-20T17:19:18;93310.84;;;22.64;44.96
48035;BME280;33812;46.480;6.834;2023-05-20T17:23:20;93311.91;;;22.66;44.86
48035;BME280;33812;46.480;6.834;2023-05-20T17:27:24;93311.16;;;22.66;45.03
48035;BME280;33812;46.480;6.834;2023-05-20T17:31:28;93313.16;;;22.65;44.41
48035;BME280;33812;46.480;6.834;2023-05-20T17:35:32;93315.16;;;22.65;44.45
48035;BME280;33812;46.480;6.834;2023-05-20T17:39:35;93323.13;;;22.63;44.76
48035;BME280;33812;46.480;6.834;2023-05-20T17:43:37;93322.72;;;22.64;44.62
48035;BME280;33812;46.480;6.834;2023-05-20T17:47:39;93323.00;;;22.66;44.61
48035;BME280;33812;46.480;6.834;2023-05-20T17:51:42;93331.00;;;22.64;44.71
48035;BME280;33812;46.480;6.834;2023-05-20T17:55:45;93325.94;;;22.72;45.10
48035;BME280;33812;46.480;6.834;2023-05-20T17:59:47;93332.56;;;22.75;45.37
48035;BME280;33812;46.480;6.834;2023-05-20T18:03:50;93332.25;;;22.73;45.36
48035;BME280;33812;46.480;6.834;2023-05-20T18:07:54;93331.47;;;22.72;45.45
48035;BME280;33812;46.480;6.834;2023-05-20T18:11:56;93333.78;;;22.74;45.28
48035;BME280;33812;46.480;6.834;2023-05-20T18:15:58;93334.25;;;22.72;45.47
48035;BME280;33812;46.480;6.834;2023-05-20T18:20:01;93337.00;;;22.72;45.40
48035;BME280;33812;46.480;6.834;2023-05-20T18:24:05;93345.78;;;22.70;45.33
48035;BME280;33812;46.480;6.834;2023-05-20T18:28:07;93341.31;;;22.73;45.55
48035;BME280;33812;46.480;6.834;2023-05-20T18:32:10;93332.13;;;22.35;44.32
48035;BME280;33812;46.480;6.834;2023-05-20T18:36:13;93336.03;;;21.52;43.00
48035;BME280;33812;46.480;6.834;2023-05-20T18:40:16;93336.13;;;21.93;43.29
48035;BME280;33812;46.480;6.834;2023-05-20T18:44:18;93332.75;;;21.98;43.50
48035;BME280;33812;46.480;6.834;2023-05-20T18:48:20;93323.13;;;21.80;43.83
48035;BME280;33812;46.480;6.834;2023-05-20T18:52:22;93315.69;;;22.00;43.85
48035;BME280;33812;46.480;6.834;2023-05-20T18:56:26;93314.81;;;22.12;44.10
48035;BME280;33812;46.480;6.834;2023-05-20T19:00:27;93314.22;;;22.17;44.41
48035;BME280;33812;46.480;6.834;2023-05-20T19:04:29;93315.47;;;22.16;43.81
48035;BME280;33812;46.480;6.834;2023-05-20T19:08:31;93317.03;;;21.85;44.20
48035;BME280;33812;46.480;6.834;2023-05-20T19:12:34;93317.56;;;22.03;44.41
48035;BME280;33812;46.480;6.834;2023-05-20T19:16:38;93320.81;;;22.10;44.11
48035;BME280;33812;46.480;6.834;2023-05-20T19:20:40;93325.75;;;22.16;44.11
48035;BME280;33812;46.480;6.834;2023-05-20T19:24:42;93323.78;;;22.16;44.15
48035;BME280;33812;46.480;6.834;2023-05-20T19:28:45;93326.53;;;22.16;44.13
48035;BME280;33812;46.480;6.834;2023-05-20T19:32:46;93337.22;;;21.73;44.23
48035;BME280;33812;46.480;6.834;2023-05-20T19:36:48;93338.63;;;21.78;44.62
48035;BME280;33812;46.480;6.834;2023-05-20T19:40:50;93335.06;;;22.00;44.38
48035;BME280;33812;46.480;6.834;2023-05-20T19:44:54;93330.34;;;22.09;45.41
48035;BME280;33812;46.480;6.834;2023-05-20T19:48:57;93334.50;;;22.14;46.77
48035;BME280;33812;46.480;6.834;2023-05-20T19:53:00;93348.00;;;22.03;47.26
48035;BME280;33812;46.480;6.834;2023-05-20T19:57:05;93351.97;;;21.92;46.73
48035;BME280;33812;46.480;6.834;2023-05-20T20:01:08;93356.94;;;22.07;47.40
48035;BME280;33812;46.480;6.834;2023-05-20T20:05:10;93339.66;;;21.93;47.00
48035;BME280;33812;46.480;6.834;2023-05-20T20:09:13;93340.25;;;21.88;48.42
48035;BME280;33812;46.480;6.834;2023-05-20T20:13:15;93348.16;;;21.99;47.40
48035;BME280;33812;46.480;6.834;2023-05-20T20:17:18;93349.75;;;22.19;48.07
48035;BME280;33812;46.480;6.834;2023-05-20T20:21:22;93348.59;;;21.75;47.30
48035;BME280;33812;46.480;6.834;2023-05-20T20:25:24;93353.16;;;21.91;47.83
48035;BME280;33812;46.480;6.834;2023-05-20T20:29:26;93351.38;;;21.97;47.34
48035;BME280;33812;46.480;6.834;2023-05-20T20:33:30;93340.75;;;21.96;47.57
48035;BME280;33812;46.480;6.834;2023-05-20T20:37:32;93336.88;;;21.93;47.80
48035;BME280;33812;46.480;6.834;2023-05-20T20:41:35;93339.19;;;21.95;47.80
48035;BME280;33812;46.480;6.834;2023-05-20T20:45:38;93338.44;;;21.94;47.35
48035;BME280;33812;46.480;6.834;2023-05-20T20:49:42;93338.84;;;21.83;47.47
48035;BME280;33812;46.480;6.834;2023-05-20T20:53:44;93323.94;;;21.58;47.36
48035;BME280;33812;46.480;6.834;2023-05-20T20:57:47;93329.94;;;21.34;47.25
48035;BME280;33812;46.480;6.834;2023-05-20T21:01:49;93331.72;;;21.28;46.79
48035;BME280;33812;46.480;6.834;2023-05-20T21:05:53;93330.84;;;21.63;47.57
48035;BME280;33812;46.480;6.834;2023-05-20T21:09:55;93330.22;;;21.81;47.06
48035;BME280;33812;46.480;6.834;2023-05-20T21:13:57;93332.75;;;21.98;47.77
48035;BME280;33812;46.480;6.834;2023-05-20T21:17:58;93321.59;;;21.79;46.88
48035;BME280;33812;46.480;6.834;2023-05-20T21:22:03;93313.66;;;21.59;47.12
48035;BME280;33812;46.480;6.834;2023-05-20T21:26:05;93316.00;;;22.02;47.34
48035;BME280;33812;46.480;6.834;2023-05-20T21:30:08;93320.50;;;21.77;45.83